createdAt,value
2018-03-28T00:01:31.749Z,17.93
2018-03-28T00:04:00.228Z,17.67
2018-03-28T00:06:28.696Z,17.13
2018-03-28T00:08:57.156Z,17.60
2018-03-28T00:11:25.545Z,16.03
2018-03-28T00:13:53.976Z,18.40
2018-03-28T00:16:22.425Z,17.03
2018-03-28T00:18:50.842Z,17.17
2018-03-28T00:21:19.334Z,17.53
2018-03-28T00:23:47.789Z,17.93
2018-03-28T00:26:16.164Z,17.23
2018-03-28T00:28:44.577Z,17.77
2018-03-28T00:31:13.018Z,17.83
2018-03-28T00:33:41.468Z,18.13
2018-03-28T00:36:09.855Z,18.10
2018-03-28T00:38:38.288Z,16.70
2018-03-28T00:41:06.692Z,17.87
2018-03-28T00:43:35.088Z,17.43
2018-03-28T00:46:03.537Z,17.43
2018-03-28T00:48:32.031Z,17.07
2018-03-28T00:53:59.629Z,15.67
2018-03-28T00:56:28.069Z,15.63
2018-03-28T00:58:56.476Z,17.07
2018-03-28T01:01:24.941Z,19.47
2018-03-28T01:03:53.350Z,17.93
2018-03-28T01:06:21.792Z,18.33
2018-03-28T01:08:50.212Z,19.20
2018-03-28T01:11:18.642Z,18.07
2018-03-28T01:13:47.020Z,19.23
2018-03-28T01:16:15.457Z,19.03
2018-03-28T01:18:43.877Z,20.83
2018-03-28T01:21:12.645Z,20.80
2018-03-28T01:23:41.051Z,21.20
2018-03-28T01:26:09.458Z,21.17
2018-03-28T01:28:37.896Z,18.90
2018-03-28T01:31:06.316Z,19.70
2018-03-28T01:33:34.716Z,20.00
2018-03-28T01:36:03.564Z,18.37
2018-03-28T01:38:31.960Z,20.57
2018-03-28T01:41:00.344Z,19.50
2018-03-28T01:43:28.799Z,19.17
2018-03-28T01:45:57.261Z,19.83
2018-03-28T01:48:25.672Z,19.30
2018-03-28T01:50:54.361Z,21.20
2018-03-28T01:53:23.177Z,21.47
2018-03-28T01:55:51.723Z,22.77
2018-03-28T01:58:20.103Z,20.60
2018-03-28T02:03:23.252Z,24.00
2018-03-28T02:05:51.762Z,21.27
2018-03-28T02:08:20.253Z,21.10
2018-03-28T02:10:48.816Z,21.17
2018-03-28T02:13:17.233Z,22.30
2018-03-28T02:15:45.688Z,24.20
2018-03-28T02:18:14.080Z,19.27
2018-03-28T02:20:42.561Z,23.50
2018-03-28T02:23:10.946Z,22.47
2018-03-28T02:25:39.507Z,26.43
2018-03-28T02:28:07.905Z,23.43
2018-03-28T02:30:36.363Z,25.10
2018-03-28T02:33:04.797Z,19.50
2018-03-28T02:35:33.318Z,26.10
2018-03-28T02:38:01.712Z,20.00
2018-03-28T02:40:30.145Z,21.50
2018-03-28T02:42:58.600Z,24.27
2018-03-28T02:45:26.992Z,24.70
2018-03-28T02:47:55.386Z,24.70
2018-03-28T02:50:23.881Z,24.87
2018-03-28T02:52:52.265Z,23.63
2018-03-28T02:55:20.789Z,23.83
2018-03-28T02:57:49.285Z,26.03
2018-03-28T03:00:17.833Z,23.53
2018-03-28T03:02:46.239Z,23.97
2018-03-28T03:05:14.831Z,22.73
2018-03-28T03:07:43.284Z,21.80
2018-03-28T03:10:12.002Z,21.63
2018-03-28T03:12:40.465Z,20.73
2018-03-28T03:15:08.860Z,20.77
2018-03-28T03:17:37.309Z,21.10
2018-03-28T03:20:05.761Z,21.47
2018-03-28T03:22:34.199Z,20.33
2018-03-28T03:25:02.605Z,20.10
2018-03-28T03:27:31.083Z,20.83
2018-03-28T03:29:59.498Z,21.30
2018-03-28T03:32:27.876Z,22.67
2018-03-28T03:34:56.381Z,21.53
2018-03-28T03:37:24.787Z,21.23
2018-03-28T03:39:53.240Z,22.60
2018-03-28T03:42:21.652Z,22.83
2018-03-28T03:44:50.097Z,23.43
2018-03-28T03:47:18.510Z,24.93
2018-03-28T03:49:46.905Z,24.27
2018-03-28T03:52:15.357Z,23.60
2018-03-28T03:54:43.772Z,23.60
2018-03-28T03:57:12.214Z,22.50
2018-03-28T03:59:40.610Z,24.37
2018-03-28T04:02:09.028Z,23.80
2018-03-28T04:04:37.517Z,22.90
2018-03-28T04:07:05.925Z,22.17
2018-03-28T04:09:34.366Z,22.30
2018-03-28T04:12:02.908Z,21.47
2018-03-28T04:14:31.356Z,20.87
2018-03-28T04:16:59.748Z,19.77
2018-03-28T04:19:28.242Z,22.03
2018-03-28T04:21:56.746Z,19.37
2018-03-28T04:24:25.183Z,19.07
2018-03-28T04:26:53.636Z,20.27
2018-03-28T04:29:22.057Z,20.50
2018-03-28T04:31:50.508Z,22.63
2018-03-28T04:34:18.887Z,21.07
2018-03-28T04:36:47.318Z,20.17
2018-03-28T04:39:15.808Z,21.97
2018-03-28T04:41:44.247Z,22.83
2018-03-28T04:44:12.676Z,23.00
2018-03-28T04:46:41.068Z,22.30
2018-03-28T04:49:09.492Z,20.87
2018-03-28T04:51:37.937Z,20.63
2018-03-28T04:54:06.325Z,24.70
2018-03-28T04:56:34.761Z,18.50
2018-03-28T04:59:03.200Z,21.70
2018-03-28T05:01:31.591Z,21.20
2018-03-28T05:04:00.061Z,21.83
2018-03-28T05:06:28.498Z,19.80
2018-03-28T05:08:56.924Z,21.60
2018-03-28T05:11:25.329Z,22.07
2018-03-28T05:13:53.813Z,23.13
2018-03-28T05:16:22.256Z,22.00
2018-03-28T05:18:50.808Z,21.93
2018-03-28T05:21:19.231Z,22.50
2018-03-28T05:23:47.721Z,20.60
2018-03-28T05:26:16.147Z,20.57
2018-03-28T05:28:44.568Z,21.50
2018-03-28T05:31:12.961Z,21.33
2018-03-28T05:33:41.621Z,20.37
2018-03-28T05:36:10.051Z,21.33
2018-03-28T05:38:38.505Z,18.57
2018-03-28T05:41:06.941Z,21.03
2018-03-28T05:43:35.380Z,19.50
2018-03-28T05:46:03.939Z,18.93
2018-03-28T05:48:32.329Z,17.03
2018-03-28T05:51:00.770Z,16.67
2018-03-28T05:53:29.235Z,16.37
2018-03-28T05:55:57.728Z,17.60
2018-03-28T05:58:26.185Z,18.43
2018-03-28T06:00:54.662Z,14.17
2018-03-28T06:03:23.076Z,17.10
2018-03-28T06:05:51.496Z,16.60
2018-03-28T06:08:19.906Z,14.40
2018-03-28T06:10:48.297Z,16.50
2018-03-28T06:13:16.738Z,15.90
2018-03-28T06:15:45.229Z,19.17
2018-03-28T06:18:13.659Z,17.40
2018-03-28T06:20:42.067Z,17.90
2018-03-28T06:23:10.516Z,18.63
2018-03-28T06:25:38.917Z,18.83
2018-03-28T06:28:07.411Z,18.73
2018-03-28T06:30:36.118Z,16.63
2018-03-28T06:33:04.574Z,16.13
2018-03-28T06:35:32.972Z,17.17
2018-03-28T06:38:01.424Z,17.27
2018-03-28T06:40:29.896Z,18.27
2018-03-28T06:42:58.316Z,18.40
2018-03-28T06:45:26.752Z,16.77
2018-03-28T06:47:55.180Z,18.20
2018-03-28T06:50:23.619Z,18.10
2018-03-28T06:52:52.030Z,17.53
2018-03-28T06:55:20.488Z,17.30
2018-03-28T06:57:48.901Z,18.53
2018-03-28T07:00:17.321Z,15.83
2018-03-28T07:02:45.752Z,14.43
2018-03-28T07:05:14.173Z,14.73
2018-03-28T07:07:42.561Z,17.50
2018-03-28T07:10:11.021Z,15.70
2018-03-28T07:12:39.445Z,15.07
2018-03-28T07:15:07.842Z,15.63
2018-03-28T07:17:36.290Z,15.90
2018-03-28T07:20:04.668Z,15.70
2018-03-28T07:22:33.129Z,17.27
2018-03-28T07:25:01.822Z,17.20
2018-03-28T07:27:30.251Z,14.83
2018-03-28T07:29:58.706Z,14.83
2018-03-28T07:32:27.221Z,14.17
2018-03-28T07:34:55.617Z,14.73
2018-03-28T07:37:24.081Z,14.63
2018-03-28T07:39:52.504Z,14.60
2018-03-28T07:42:20.936Z,13.17
2018-03-28T07:44:49.401Z,13.63
2018-03-28T07:47:18.333Z,14.90
2018-03-28T07:49:46.758Z,14.67
2018-03-28T07:52:15.136Z,13.90
2018-03-28T07:54:43.566Z,16.23
2018-03-28T07:57:11.961Z,14.43
2018-03-28T07:59:40.379Z,13.50
2018-03-28T08:02:08.896Z,14.57
2018-03-28T08:04:37.334Z,15.60
2018-03-28T08:07:08.662Z,15.40
2018-03-28T08:09:37.110Z,15.10
2018-03-28T08:12:05.524Z,14.00
2018-03-28T08:14:33.989Z,12.83
2018-03-28T08:17:02.394Z,12.83
2018-03-28T08:19:30.814Z,13.03
2018-03-28T08:21:59.246Z,13.53
2018-03-28T08:24:27.997Z,14.40
2018-03-28T08:26:56.474Z,15.10
2018-03-28T08:29:24.878Z,15.57
2018-03-28T08:31:53.280Z,15.77
2018-03-28T08:34:21.706Z,13.97
2018-03-28T08:36:50.107Z,15.57
2018-03-28T08:39:18.525Z,14.57
2018-03-28T08:41:46.988Z,14.30
2018-03-28T08:44:15.434Z,11.93
2018-03-28T08:46:43.908Z,12.27
2018-03-28T08:49:12.309Z,12.70
2018-03-28T08:51:40.745Z,13.80
2018-03-28T08:54:09.197Z,14.37
2018-03-28T08:56:37.633Z,12.53
2018-03-28T08:59:06.024Z,13.07
2018-03-28T09:01:34.469Z,12.70
2018-03-28T09:04:02.910Z,13.70
2018-03-28T09:06:31.333Z,11.10
2018-03-28T09:08:59.721Z,12.00
2018-03-28T09:11:28.157Z,13.43
2018-03-28T09:13:56.589Z,13.67
2018-03-28T09:16:25.141Z,12.97
2018-03-28T09:18:53.663Z,11.87
2018-03-28T09:21:22.053Z,14.30
2018-03-28T09:23:50.473Z,12.27
2018-03-28T09:26:18.891Z,11.47
2018-03-28T09:28:47.324Z,12.17
2018-03-28T09:31:15.721Z,13.80
2018-03-28T09:33:44.184Z,12.50
2018-03-28T09:36:12.619Z,12.83
2018-03-28T09:38:41.079Z,12.13
2018-03-28T09:41:09.461Z,13.13
2018-03-28T09:43:37.912Z,13.90
2018-03-28T09:46:06.349Z,12.20
2018-03-28T09:48:34.817Z,12.80
2018-03-28T09:51:03.217Z,10.90
2018-03-28T09:53:31.679Z,12.00
2018-03-28T09:56:00.113Z,12.97
2018-03-28T09:58:28.495Z,11.60
2018-03-28T10:01:12.912Z,13.00
2018-03-28T10:03:46.865Z,11.83
2018-03-28T10:06:15.274Z,11.63
2018-03-28T10:08:43.751Z,11.90
2018-03-28T10:11:12.188Z,11.17
2018-03-28T10:13:40.623Z,12.00
2018-03-28T10:16:09.019Z,11.00
2018-03-28T10:18:37.460Z,10.30
2018-03-28T10:21:05.854Z,10.23
2018-03-28T10:23:34.236Z,9.57
2018-03-28T10:26:02.682Z,9.43
2018-03-28T10:28:31.124Z,9.13
2018-03-28T10:30:59.544Z,9.03
2018-03-28T10:33:27.980Z,9.87
2018-03-28T10:35:56.468Z,9.63
2018-03-28T10:38:24.916Z,10.03
2018-03-28T10:40:53.480Z,10.10
2018-03-28T10:43:21.943Z,9.67
2018-03-28T10:45:50.326Z,9.60
2018-03-28T10:48:18.762Z,9.73
2018-03-28T10:50:47.205Z,10.53
2018-03-28T10:53:15.640Z,11.67
2018-03-28T10:55:44.098Z,11.03
2018-03-28T10:58:12.500Z,10.83
2018-03-28T11:00:40.928Z,11.40
2018-03-28T11:03:09.369Z,10.90
2018-03-28T11:05:37.820Z,12.57
2018-03-28T11:08:06.264Z,10.20
2018-03-28T11:10:34.729Z,10.70
2018-03-28T11:13:03.212Z,10.70
2018-03-28T11:15:31.633Z,9.40
2018-03-28T11:18:00.017Z,10.80
2018-03-28T11:20:28.530Z,13.03
2018-03-28T11:22:56.914Z,10.73
2018-03-28T11:25:25.364Z,10.40
2018-03-28T11:27:53.771Z,12.20
2018-03-28T11:30:22.320Z,9.97
2018-03-28T11:32:50.785Z,11.03
2018-03-28T11:35:19.268Z,10.63
2018-03-28T11:37:47.661Z,10.80
2018-03-28T11:40:16.085Z,11.43
2018-03-28T11:42:44.510Z,10.70
2018-03-28T11:45:12.912Z,10.73
2018-03-28T11:47:41.382Z,11.17
2018-03-28T11:50:09.788Z,13.90
2018-03-28T11:52:38.234Z,12.07
2018-03-28T11:55:06.757Z,12.17
2018-03-28T11:57:35.225Z,11.17
2018-03-28T12:00:03.715Z,11.27
2018-03-28T12:02:32.249Z,11.87
2018-03-28T12:05:00.740Z,11.20
2018-03-28T12:07:29.137Z,12.40
2018-03-28T12:09:57.586Z,11.00
2018-03-28T12:12:25.992Z,10.33
2018-03-28T12:14:54.429Z,11.17
2018-03-28T12:17:22.860Z,11.40
2018-03-28T12:19:51.336Z,11.00
2018-03-28T12:22:19.755Z,9.73
2018-03-28T12:24:48.137Z,10.03
2018-03-28T12:27:16.593Z,11.13
2018-03-28T12:29:45.053Z,10.63
2018-03-28T12:32:13.476Z,9.50
2018-03-28T12:34:41.925Z,10.20
2018-03-28T12:37:10.372Z,9.70
2018-03-28T12:39:38.808Z,11.80
2018-03-28T12:42:07.265Z,9.20
2018-03-28T12:44:35.680Z,9.53
2018-03-28T12:47:04.204Z,9.97
2018-03-28T12:49:32.725Z,10.53
2018-03-28T12:52:01.094Z,10.87
2018-03-28T12:54:29.525Z,9.93
2018-03-28T12:56:57.935Z,11.33
2018-03-28T12:59:26.384Z,9.77
2018-03-28T13:01:54.770Z,11.00
2018-03-28T13:04:23.179Z,10.73
2018-03-28T13:06:51.649Z,11.47
2018-03-28T13:09:20.067Z,10.90
2018-03-28T13:11:48.510Z,11.33
2018-03-28T13:14:16.948Z,9.70
2018-03-28T13:16:45.382Z,10.33
2018-03-28T13:19:13.848Z,13.33
2018-03-28T13:21:42.300Z,14.33
2018-03-28T13:24:10.753Z,14.00
2018-03-28T13:26:39.179Z,10.17
2018-03-28T13:29:07.597Z,11.17
2018-03-28T13:31:36.031Z,12.30
2018-03-28T13:34:04.488Z,11.17
2018-03-28T13:36:32.905Z,11.30
2018-03-28T13:39:01.332Z,10.80
2018-03-28T13:41:29.792Z,12.27
2018-03-28T13:43:58.253Z,11.37
2018-03-28T13:46:26.637Z,10.20
2018-03-28T13:48:55.065Z,11.63
2018-03-28T13:51:23.520Z,10.93
2018-03-28T13:53:51.996Z,10.70
2018-03-28T13:56:20.408Z,10.97
2018-03-28T13:58:48.807Z,10.93
2018-03-28T14:01:17.216Z,9.20
2018-03-28T14:03:45.609Z,8.67
2018-03-28T14:06:14.058Z,8.47
2018-03-28T14:08:42.505Z,9.40
2018-03-28T14:11:11.283Z,9.63
2018-03-28T14:13:39.670Z,11.13
2018-03-28T14:16:08.149Z,9.63
2018-03-28T14:18:36.557Z,9.90
2018-03-28T14:21:04.951Z,9.03
2018-03-28T14:23:33.406Z,8.30
2018-03-28T14:26:01.846Z,10.00
2018-03-28T14:28:30.323Z,10.50
2018-03-28T14:30:58.833Z,9.90
2018-03-28T14:33:27.240Z,9.83
2018-03-28T14:35:55.677Z,9.70
2018-03-28T14:38:24.070Z,11.07
2018-03-28T14:40:52.517Z,10.43
2018-03-28T14:43:20.938Z,10.40
2018-03-28T14:45:49.396Z,10.03
2018-03-28T14:48:17.791Z,9.40
2018-03-28T14:50:46.198Z,8.60
2018-03-28T14:53:14.653Z,10.30
2018-03-28T14:55:43.082Z,10.30
2018-03-28T14:58:11.494Z,13.70
2018-03-28T15:00:39.904Z,9.40
2018-03-28T15:03:08.416Z,13.30
2018-03-28T15:05:36.866Z,10.50
2018-03-28T15:08:05.488Z,10.13
2018-03-28T15:10:33.893Z,12.03
2018-03-28T15:13:02.344Z,11.47
2018-03-28T15:15:30.793Z,11.40
2018-03-28T15:17:59.368Z,10.60
2018-03-28T15:20:27.799Z,10.80
2018-03-28T15:22:56.221Z,9.90
2018-03-28T15:25:24.605Z,10.33
2018-03-28T15:27:53.058Z,10.67
2018-03-28T15:30:21.466Z,10.33
2018-03-28T15:32:49.935Z,11.63
2018-03-28T15:35:18.343Z,11.37
2018-03-28T15:37:46.784Z,11.23
2018-03-28T15:40:15.197Z,10.27
2018-03-28T15:42:43.658Z,10.27
2018-03-28T15:45:12.101Z,17.00
2018-03-28T15:47:40.511Z,9.33
2018-03-28T15:50:09.026Z,13.57
2018-03-28T15:52:37.485Z,13.63
2018-03-28T15:55:05.865Z,9.27
2018-03-28T15:57:34.300Z,10.17
2018-03-28T16:00:02.834Z,13.17
2018-03-28T16:02:31.248Z,13.90
2018-03-28T16:04:59.678Z,14.73
2018-03-28T16:07:28.137Z,10.87
2018-03-28T16:09:56.617Z,11.60
2018-03-28T16:12:25.025Z,14.43
2018-03-28T16:14:53.429Z,14.87
2018-03-28T16:17:21.856Z,15.90
2018-03-28T16:19:50.281Z,17.40
2018-03-28T16:22:18.726Z,16.20
2018-03-28T16:24:47.189Z,17.53
2018-03-28T16:27:15.662Z,20.37
2018-03-28T16:29:44.120Z,24.87
2018-03-28T16:32:12.670Z,27.67
2018-03-28T16:34:41.487Z,28.17
2018-03-28T16:37:10.017Z,24.90
2018-03-28T16:39:38.460Z,24.87
2018-03-28T16:42:07.109Z,24.50
2018-03-28T16:44:35.625Z,25.17
2018-03-28T16:47:04.044Z,25.10
2018-03-28T16:49:32.477Z,20.73
2018-03-28T16:52:00.868Z,20.03
2018-03-28T16:54:29.302Z,21.03
2018-03-28T16:56:57.696Z,23.53
2018-03-28T16:59:26.279Z,22.37
2018-03-28T17:01:54.742Z,21.87
2018-03-28T17:04:23.157Z,21.67
2018-03-28T17:06:51.606Z,19.57
2018-03-28T17:09:20.158Z,20.27
2018-03-28T17:11:48.581Z,22.37
2018-03-28T17:14:17.005Z,20.00
2018-03-28T17:16:45.485Z,22.27
2018-03-28T17:19:13.888Z,20.27
2018-03-28T17:21:42.337Z,20.80
2018-03-28T17:24:10.728Z,18.40
2018-03-28T17:26:39.134Z,19.47
2018-03-28T17:29:07.701Z,21.20
2018-03-28T17:31:36.145Z,20.77
2018-03-28T17:34:04.565Z,21.40
2018-03-28T17:36:33.012Z,22.07
2018-03-28T17:39:01.540Z,21.47
2018-03-28T17:41:29.985Z,22.33
2018-03-28T17:43:58.525Z,24.27
2018-03-28T17:46:26.959Z,25.60
2018-03-28T17:48:55.362Z,24.47
2018-03-28T17:51:23.782Z,24.30
2018-03-28T17:53:52.169Z,25.27
2018-03-28T17:56:20.589Z,22.93
2018-03-28T17:58:49.025Z,21.60
2018-03-28T18:01:17.490Z,21.97
2018-03-28T18:03:45.881Z,23.17
2018-03-28T18:06:14.332Z,26.03
2018-03-28T18:08:42.760Z,23.40
2018-03-28T18:11:11.205Z,22.17
2018-03-28T18:13:39.596Z,24.73
2018-03-28T18:16:08.158Z,24.27
2018-03-28T18:18:36.571Z,25.03
2018-03-28T18:21:05.137Z,20.83
2018-03-28T18:23:33.594Z,25.23
2018-03-28T18:26:02.034Z,34.10
2018-03-28T18:28:30.464Z,31.87
2018-03-28T18:30:58.921Z,34.00
2018-03-28T18:33:27.326Z,33.80
2018-03-28T18:35:55.778Z,34.23
2018-03-28T18:38:24.208Z,34.93
2018-03-28T18:40:52.672Z,30.57
2018-03-28T18:43:21.074Z,32.43
2018-03-28T18:45:49.460Z,27.03
2018-03-28T18:48:17.886Z,24.47
2018-03-28T18:50:46.339Z,27.00
2018-03-28T18:53:14.761Z,30.00
2018-03-28T18:55:43.153Z,25.23
2018-03-28T18:58:11.588Z,27.37
2018-03-28T19:00:40.000Z,28.07
2018-03-28T19:03:08.483Z,30.17
2018-03-28T19:05:36.917Z,30.10
2018-03-28T19:08:05.399Z,22.73
2018-03-28T19:10:33.882Z,23.63
2018-03-28T19:13:02.274Z,21.63
2018-03-28T19:15:30.698Z,20.47
2018-03-28T19:17:59.256Z,21.67
2018-03-28T19:20:27.688Z,21.53
2018-03-28T19:22:56.085Z,20.53
2018-03-28T19:25:24.525Z,22.67
2018-03-28T19:27:52.961Z,22.90
2018-03-28T19:30:21.389Z,22.87
2018-03-28T19:32:49.832Z,23.23
2018-03-28T19:35:18.281Z,21.33
2018-03-28T19:37:46.722Z,21.83
2018-03-28T19:40:15.182Z,24.27
2018-03-28T19:42:43.613Z,23.70
2018-03-28T19:45:12.042Z,20.33
2018-03-28T19:47:40.485Z,21.17
2018-03-28T19:50:08.941Z,21.10
2018-03-28T19:52:37.368Z,22.37
2018-03-28T19:55:05.759Z,22.93
2018-03-28T19:57:34.179Z,24.67
2018-03-28T20:00:02.623Z,23.70
2018-03-28T20:02:31.082Z,24.57
2018-03-28T20:04:59.481Z,25.17
2018-03-28T20:07:27.933Z,26.83
2018-03-28T20:09:56.313Z,24.87
2018-03-28T20:12:24.799Z,25.63
2018-03-28T20:14:53.244Z,25.60
2018-03-28T20:17:21.681Z,26.53
2018-03-28T20:19:50.100Z,24.20
2018-03-28T20:22:18.504Z,24.53
2018-03-28T20:24:46.972Z,27.30
2018-03-28T20:27:15.412Z,24.37
2018-03-28T20:29:43.838Z,26.90
2018-03-28T20:32:12.249Z,23.53
2018-03-28T20:34:40.732Z,26.13
2018-03-28T20:37:09.126Z,24.90
2018-03-28T20:39:37.548Z,24.27
2018-03-28T20:42:05.953Z,25.07
2018-03-28T20:44:34.376Z,22.50
2018-03-28T20:47:02.765Z,21.70
2018-03-28T20:49:31.269Z,20.60
2018-03-28T20:51:59.709Z,19.47
2018-03-28T20:54:28.125Z,19.60
2018-03-28T20:56:56.581Z,19.57
2018-03-28T20:59:24.995Z,20.50
2018-03-28T21:01:53.389Z,19.93
2018-03-28T21:04:21.891Z,19.23
2018-03-28T21:06:50.313Z,19.33
2018-03-28T21:09:18.717Z,18.77
2018-03-28T21:11:47.200Z,20.33
2018-03-28T21:14:15.658Z,18.23
2018-03-28T21:16:44.061Z,17.93
2018-03-28T21:19:12.465Z,18.13
2018-03-28T21:21:40.913Z,17.33
2018-03-28T21:24:09.465Z,18.40
2018-03-28T21:26:37.885Z,16.20
2018-03-28T21:29:06.332Z,17.37
2018-03-28T21:31:34.923Z,17.13
2018-03-28T21:34:03.434Z,16.00
2018-03-28T21:36:31.898Z,15.13
2018-03-28T21:39:00.338Z,16.37
2018-03-28T21:41:28.827Z,17.30
2018-03-28T21:43:57.269Z,15.53
2018-03-28T21:46:25.748Z,16.03
2018-03-28T21:48:54.155Z,13.83
2018-03-28T21:51:22.637Z,15.60
2018-03-28T21:53:51.034Z,14.83
2018-03-28T21:56:19.614Z,14.80
2018-03-28T21:58:48.060Z,15.30
2018-03-28T22:01:16.469Z,16.30
2018-03-28T22:03:45.051Z,15.77
2018-03-28T22:06:13.460Z,15.50
2018-03-28T22:08:41.924Z,14.83
2018-03-28T22:11:10.364Z,15.40
2018-03-28T22:13:38.847Z,15.50
2018-03-28T22:16:07.300Z,14.97
2018-03-28T22:18:35.801Z,14.37
2018-03-28T22:21:04.310Z,16.40
2018-03-28T22:23:32.740Z,14.90
2018-03-28T22:26:01.313Z,16.57
2018-03-28T22:28:29.759Z,15.67
2018-03-28T22:30:58.220Z,15.63
2018-03-28T22:33:26.632Z,14.63
2018-03-28T22:35:55.080Z,15.83
2018-03-28T22:38:23.639Z,16.57
2018-03-28T22:40:52.065Z,15.07
2018-03-28T22:43:20.521Z,15.13
2018-03-28T22:45:49.106Z,15.63
2018-03-28T22:48:17.890Z,15.13
2018-03-28T22:50:46.356Z,14.50
2018-03-28T22:53:14.805Z,15.70
2018-03-28T22:55:43.250Z,15.60
2018-03-28T22:58:11.688Z,14.73
2018-03-28T23:00:40.211Z,17.67
2018-03-28T23:03:08.773Z,13.97
2018-03-28T23:05:37.330Z,13.97
2018-03-28T23:08:05.740Z,16.27
2018-03-28T23:10:34.209Z,14.53
2018-03-28T23:13:02.605Z,14.97
2018-03-28T23:15:31.204Z,14.47
2018-03-28T23:17:59.757Z,14.83
2018-03-28T23:20:28.233Z,14.60
2018-03-28T23:22:56.629Z,18.30
2018-03-28T23:25:25.104Z,17.23
2018-03-28T23:27:53.506Z,15.87
2018-03-28T23:30:21.936Z,16.40
2018-03-28T23:32:50.338Z,14.97
2018-03-28T23:35:18.777Z,15.23
2018-03-28T23:37:47.196Z,15.30
2018-03-28T23:40:15.692Z,14.73
2018-03-28T23:42:44.169Z,15.90
2018-03-28T23:45:12.602Z,16.07
2018-03-28T23:47:40.997Z,14.73
2018-03-28T23:50:09.450Z,14.27
2018-03-28T23:52:38.006Z,14.03
2018-03-28T23:55:06.453Z,13.70
2018-03-28T23:57:34.941Z,12.27
